Time;durP1;ratioP1;P1;durP2;ratioP2;P2;SDS_P1;SDS_P2;PMS_P1;PMS_P2;Temp;Humidity;BMP_temperature;BMP_pressure;BME280_temperature;BME280_humidity;BME280_pressure;Samples;Min_cycle;Max_cycle;Signal;HPM_P1;HPM_P2
2023/12/02 00:02:16;;;;;;;77.17;29.50;;;-2.10;99.90;;;;;;4946543;29;20300;-81
2023/12/02 00:04:43;;;;;;;75.03;31.00;;;-2.10;99.90;;;;;;4960515;29;20211;-79
2023/12/02 00:07:11;;;;;;;73.47;30.43;;;-2.10;99.90;;;;;;4941462;29;20683;-79
2023/12/02 00:09:38;;;;;;;74.70;31.70;;;-2.10;99.90;;;;;;4944294;29;20226;-81
2023/12/02 00:12:06;;;;;;;71.30;29.93;;;-2.10;99.90;;;;;;4941740;29;20219;-81
2023/12/02 00:14:33;;;;;;;77.63;31.00;;;-2.10;99.90;;;;;;4946831;28;20199;-81
2023/12/02 00:17:00;;;;;;;74.97;30.90;;;-2.10;99.90;;;;;;4927831;29;20207;-82
2023/12/02 00:19:28;;;;;;;77.00;29.53;;;-2.10;99.90;;;;;;4940407;29;20206;-82
2023/12/02 00:21:55;;;;;;;74.87;30.47;;;-2.10;99.90;;;;;;4941197;29;20199;-81
2023/12/02 00:24:22;;;;;;;77.77;30.40;;;-2.00;99.90;;;;;;4952056;29;20215;-82
2023/12/02 00:26:50;;;;;;;76.23;30.57;;;-2.00;99.90;;;;;;4950001;29;20238;-83
2023/12/02 00:29:17;;;;;;;77.37;31.43;;;-2.00;99.90;;;;;;4941919;29;20223;-80
2023/12/02 00:31:45;;;;;;;75.30;31.80;;;-2.00;99.90;;;;;;4954936;29;20313;-83
2023/12/02 00:34:12;;;;;;;72.27;30.70;;;-2.00;99.90;;;;;;4939300;29;20207;-83
2023/12/02 00:36:39;;;;;;;82.67;33.43;;;-2.10;99.90;;;;;;4952630;29;20206;-81
2023/12/02 00:39:07;;;;;;;80.53;30.07;;;-2.20;99.90;;;;;;4937665;29;20195;-82
2023/12/02 00:41:34;;;;;;;82.13;31.90;;;-2.20;99.90;;;;;;4952589;29;20230;-81
2023/12/02 00:44:01;;;;;;;81.40;32.27;;;-2.20;99.90;;;;;;4936522;29;20203;-82
2023/12/02 00:46:28;;;;;;;82.87;32.17;;;-2.20;99.90;;;;;;4939003;29;20641;-83
2023/12/02 00:48:55;;;;;;;87.83;34.07;;;-2.20;99.90;;;;;;4939565;29;20264;-81
2023/12/02 00:51:23;;;;;;;79.97;33.37;;;-2.20;99.90;;;;;;4939026;29;20215;-80
2023/12/02 00:53:50;;;;;;;83.80;34.00;;;-2.20;99.90;;;;;;4938705;29;20206;-80
2023/12/02 00:56:17;;;;;;;92.37;35.87;;;-2.30;99.90;;;;;;4952188;29;20245;-80
2023/12/02 00:58:44;;;;;;;101.13;37.70;;;-2.40;99.90;;;;;;4956702;29;20194;-80
2023/12/02 01:01:11;;;;;;;91.57;35.73;;;-2.40;99.90;;;;;;4956808;29;20206;-81
2023/12/02 01:03:38;;;;;;;95.23;37.53;;;-2.50;99.90;;;;;;4956417;29;20187;-80
2023/12/02 01:06:06;;;;;;;92.97;36.93;;;-2.50;99.90;;;;;;4956360;29;20202;-81
2023/12/02 01:08:33;;;;;;;94.73;36.70;;;-2.50;99.90;;;;;;4923679;29;20208;-82
2023/12/02 01:11:02;;;;;;;104.00;39.63;;;-2.60;99.90;;;;;;4939189;29;20299;-80
2023/12/02 01:13:29;;;;;;;97.13;38.10;;;-2.60;99.90;;;;;;4956348;29;20195;-80
2023/12/02 01:15:55;;;;;;;105.97;41.17;;;-2.60;99.90;;;;;;4956214;29;20250;-80
2023/12/02 01:18:23;;;;;;;105.87;40.27;;;-2.60;99.90;;;;;;4957222;28;20218;-83
2023/12/02 01:20:51;;;;;;;104.17;40.10;;;-2.60;99.90;;;;;;4925728;29;20219;-83
2023/12/02 01:23:18;;;;;;;107.50;40.47;;;-2.60;99.90;;;;;;4956214;29;20219;-82
2023/12/02 01:25:45;;;;;;;101.50;41.47;;;-2.60;99.90;;;;;;4957255;29;20218;-82
2023/12/02 01:28:12;;;;;;;109.90;41.93;;;-2.70;99.90;;;;;;4956987;29;20226;-81
2023/12/02 01:30:40;;;;;;;115.23;43.07;;;-2.70;99.90;;;;;;4923236;29;20302;-83
2023/12/02 01:33:07;;;;;;;110.27;41.00;;;-2.70;99.90;;;;;;4956180;29;20778;-83
2023/12/02 01:35:35;;;;;;;103.80;41.70;;;-2.80;99.90;;;;;;4939658;29;20207;-82
2023/12/02 01:38:01;;;;;;;105.97;41.60;;;-2.80;99.90;;;;;;4954514;29;20198;-82
2023/12/02 01:40:29;;;;;;;108.50;42.13;;;-2.70;99.90;;;;;;4938300;29;20226;-83
2023/12/02 01:42:56;;;;;;;106.07;40.97;;;-2.70;99.90;;;;;;4955715;29;20191;-83
2023/12/02 01:45:23;;;;;;;108.90;39.47;;;-2.70;99.90;;;;;;4938867;29;20269;-84
2023/12/02 01:47:51;;;;;;;99.83;39.00;;;-2.70;99.90;;;;;;4955193;28;20605;-84
2023/12/02 01:50:20;;;;;;;104.13;40.03;;;-2.70;99.90;;;;;;4955477;29;20218;-83
2023/12/02 01:52:47;;;;;;;102.57;38.70;;;-2.70;99.90;;;;;;4938294;29;20207;-84
2023/12/02 01:55:15;;;;;;;103.83;38.67;;;-2.60;99.90;;;;;;4955424;29;20238;-83
2023/12/02 01:57:42;;;;;;;102.70;38.90;;;-2.60;99.90;;;;;;4955469;29;20199;-83
2023/12/02 02:00:10;;;;;;;98.87;37.50;;;-2.60;99.90;;;;;;4955310;29;20675;-84
2023/12/02 02:02:37;;;;;;;100.53;36.73;;;-2.60;99.90;;;;;;4938539;29;20199;-82
2023/12/02 02:05:05;;;;;;;100.60;38.63;;;-2.60;99.90;;;;;;4955523;29;20198;-83
2023/12/02 02:07:32;;;;;;;100.73;38.00;;;-2.50;99.90;;;;;;4954012;28;20202;-83
2023/12/02 02:10:01;;;;;;;105.37;38.87;;;-2.50;99.90;;;;;;4938008;29;20225;-83
2023/12/02 02:12:28;;;;;;;103.07;38.77;;;-2.50;99.90;;;;;;4922087;29;20218;-82
2023/12/02 02:14:55;;;;;;;102.00;37.93;;;-2.60;99.90;;;;;;4955163;29;20679;-82
2023/12/02 02:17:23;;;;;;;101.77;38.73;;;-2.50;99.90;;;;;;4938277;29;20198;-83
2023/12/02 02:19:50;;;;;;;101.07;37.60;;;-2.50;99.90;;;;;;4938183;29;20225;-82
2023/12/02 02:22:18;;;;;;;99.57;38.87;;;-2.50;99.90;;;;;;4938241;29;20699;-82
2023/12/02 02:24:45;;;;;;;102.23;37.83;;;-2.50;99.90;;;;;;4955225;29;20202;-82
2023/12/02 02:27:12;;;;;;;104.30;38.13;;;-2.50;99.90;;;;;;4955232;29;20220;-82
2023/12/02 02:29:39;;;;;;;95.83;37.93;;;-2.40;99.90;;;;;;4954858;29;20219;-83
2023/12/02 02:32:07;;;;;;;105.03;39.77;;;-2.40;99.90;;;;;;4938117;29;20208;-83
2023/12/02 02:34:34;;;;;;;102.77;38.67;;;-2.40;99.90;;;;;;4954840;29;20653;-81
2023/12/02 02:37:01;;;;;;;107.13;38.10;;;-2.40;99.90;;;;;;4954857;29;20199;-83
2023/12/02 02:39:28;;;;;;;101.43;37.97;;;-2.30;99.90;;;;;;4937856;29;20206;-80
2023/12/02 02:41:56;;;;;;;101.23;36.87;;;-2.30;99.90;;;;;;4953257;29;20306;-82
2023/12/02 02:44:23;;;;;;;99.10;36.13;;;-2.40;99.90;;;;;;4954803;29;20190;-81
2023/12/02 02:46:50;;;;;;;97.83;38.00;;;-2.40;99.90;;;;;;4937512;29;20640;-80
2023/12/02 02:49:19;;;;;;;111.67;39.60;;;-2.40;99.90;;;;;;4954608;29;20218;-81
2023/12/02 02:51:46;;;;;;;104.17;38.87;;;-2.40;99.90;;;;;;4937675;29;20594;-82
2023/12/02 02:54:13;;;;;;;103.97;38.40;;;-2.30;99.90;;;;;;4954600;29;20261;-82
2023/12/02 02:56:41;;;;;;;117.13;40.67;;;-2.30;99.90;;;;;;4949820;29;20317;-82
2023/12/02 02:59:08;;;;;;;106.50;38.73;;;-2.30;99.90;;;;;;4933763;29;20274;-83
2023/12/02 03:01:38;;;;;;;108.27;38.57;;;-2.30;99.90;;;;;;4918353;29;20242;-82
2023/12/02 03:04:05;;;;;;;110.13;38.90;;;-2.20;99.90;;;;;;4918573;29;20207;-83
2023/12/02 03:06:33;;;;;;;104.67;38.63;;;-2.20;99.90;;;;;;4934256;29;20191;-84
2023/12/02 03:09:00;;;;;;;110.67;38.30;;;-2.20;99.90;;;;;;4935146;29;20246;-81
2023/12/02 03:11:27;;;;;;;106.37;38.70;;;-2.20;99.90;;;;;;4935168;29;20220;-80
2023/12/02 03:13:54;;;;;;;113.60;39.47;;;-2.20;99.90;;;;;;4935102;29;20283;-81
2023/12/02 03:16:22;;;;;;;119.43;39.53;;;-2.20;99.90;;;;;;4935036;29;20269;-80
2023/12/02 03:18:49;;;;;;;124.03;41.50;;;-2.20;99.90;;;;;;4935277;29;20212;-80
2023/12/02 03:21:16;;;;;;;117.37;39.93;;;-2.20;99.90;;;;;;4935318;29;20238;-82
2023/12/02 03:23:45;;;;;;;107.03;38.07;;;-2.20;99.90;;;;;;4934973;29;20625;-81
2023/12/02 03:26:13;;;;;;;111.10;37.50;;;-2.20;99.90;;;;;;4933663;29;20218;-82
2023/12/02 03:28:40;;;;;;;110.77;39.17;;;-2.20;99.90;;;;;;4933782;29;20265;-82
2023/12/02 03:31:09;;;;;;;113.73;38.57;;;-2.20;99.90;;;;;;4934835;29;20226;-82
2023/12/02 03:33:36;;;;;;;124.97;40.07;;;-2.40;99.90;;;;;;4934005;29;20210;-85
2023/12/02 03:36:04;;;;;;;121.50;38.80;;;-2.40;99.90;;;;;;4934862;29;20208;-83
2023/12/02 03:38:32;;;;;;;114.27;37.27;;;-2.40;99.90;;;;;;4934838;29;20198;-84
2023/12/02 03:40:59;;;;;;;112.77;36.60;;;-2.50;99.90;;;;;;4934745;29;20633;-83
2023/12/02 03:43:27;;;;;;;120.70;37.30;;;-2.50;99.90;;;;;;4934824;29;20195;-83
2023/12/02 03:45:55;;;;;;;98.43;35.07;;;-2.50;99.90;;;;;;4935322;29;20239;-84
2023/12/02 03:48:22;;;;;;;105.27;36.43;;;-2.50;99.90;;;;;;4935069;29;20287;-82
2023/12/02 03:50:50;;;;;;;116.63;34.90;;;-2.50;99.90;;;;;;4934692;29;20219;-84
2023/12/02 03:53:17;;;;;;;106.37;35.23;;;-2.50;99.90;;;;;;4934986;29;20252;-83
2023/12/02 03:55:45;;;;;;;108.70;36.60;;;-2.70;99.90;;;;;;4945182;29;20240;-83
2023/12/02 03:58:12;;;;;;;106.00;34.33;;;-2.60;99.90;;;;;;4954379;29;20549;-84
2023/12/02 04:00:41;;;;;;;100.37;33.73;;;-2.60;99.90;;;;;;4936768;29;20191;-84
2023/12/02 04:03:09;;;;;;;101.37;33.93;;;-2.50;99.90;;;;;;4953982;29;20195;-84
2023/12/02 04:05:37;;;;;;;99.77;31.80;;;-2.50;99.90;;;;;;4953896;29;20238;-83
2023/12/02 04:08:04;;;;;;;101.80;32.13;;;-2.50;99.90;;;;;;4953923;29;20240;-81
2023/12/02 04:10:32;;;;;;;97.03;31.57;;;-2.50;99.90;;;;;;4956366;28;20281;-82
2023/12/02 04:12:59;;;;;;;102.20;31.23;;;-2.50;99.90;;;;;;4940529;29;20285;-84
2023/12/02 04:15:27;;;;;;;100.23;31.43;;;-2.50;99.90;;;;;;4940332;29;20200;-82
2023/12/02 04:17:54;;;;;;;93.03;31.13;;;-2.50;99.90;;;;;;4940074;29;20726;-82
2023/12/02 04:20:21;;;;;;;108.47;31.10;;;-2.40;99.90;;;;;;4957241;29;20266;-82
2023/12/02 04:22:49;;;;;;;93.03;30.10;;;-2.50;99.90;;;;;;4940365;29;20234;-82
2023/12/02 04:25:16;;;;;;;99.23;30.03;;;-2.50;99.90;;;;;;4939760;29;20233;-81
2023/12/02 04:27:43;;;;;;;88.53;29.37;;;-2.60;99.90;;;;;;4957321;29;20198;-82
2023/12/02 04:30:11;;;;;;;96.47;30.23;;;-2.60;99.90;;;;;;4956890;29;20222;-82
2023/12/02 04:32:38;;;;;;;84.83;27.40;;;-2.50;99.90;;;;;;4956995;29;20222;-85
2023/12/02 04:35:07;;;;;;;90.27;29.07;;;-2.50;99.90;;;;;;4957132;29;20204;-83
2023/12/02 04:37:35;;;;;;;87.83;29.27;;;-2.60;99.90;;;;;;4955719;29;20647;-82
2023/12/02 04:40:04;;;;;;;88.07;28.53;;;-2.60;99.90;;;;;;4957455;29;20199;-86
2023/12/02 04:42:32;;;;;;;86.13;28.03;;;-2.60;99.90;;;;;;4939935;29;20261;-81
2023/12/02 04:44:59;;;;;;;90.20;29.53;;;-2.60;99.90;;;;;;4939444;29;20210;-80
2023/12/02 04:47:26;;;;;;;85.67;28.17;;;-2.60;99.90;;;;;;4956997;29;20289;-79
2023/12/02 04:49:53;;;;;;;88.33;28.40;;;-2.60;99.90;;;;;;4956648;29;20240;-79
2023/12/02 04:52:21;;;;;;;84.70;28.40;;;-2.60;99.90;;;;;;4939760;29;20205;-80
2023/12/02 04:54:48;;;;;;;82.80;27.23;;;-2.70;99.90;;;;;;4956698;29;20267;-80
2023/12/02 04:57:15;;;;;;;88.43;29.67;;;-2.80;99.90;;;;;;4956720;29;20301;-84
2023/12/02 04:59:43;;;;;;;85.03;28.17;;;-2.70;99.90;;;;;;4957115;29;20198;-84
2023/12/02 05:02:10;;;;;;;91.50;28.23;;;-2.80;99.90;;;;;;4956546;29;20201;-81
2023/12/02 05:04:37;;;;;;;84.90;27.73;;;-2.90;99.90;;;;;;4956466;29;20675;-81
2023/12/02 05:07:04;;;;;;;90.10;29.87;;;-2.90;99.90;;;;;;4939157;29;20249;-80
2023/12/02 05:09:32;;;;;;;84.60;29.37;;;-2.90;99.90;;;;;;4955066;29;20643;-81
2023/12/02 05:11:59;;;;;;;91.03;29.13;;;-3.00;99.90;;;;;;4938974;29;20218;-80
2023/12/02 05:14:26;;;;;;;90.27;29.30;;;-2.90;99.90;;;;;;4956201;28;20191;-81
2023/12/02 05:16:53;;;;;;;92.40;30.47;;;-3.00;99.90;;;;;;4939254;29;20214;-81
2023/12/02 05:19:20;;;;;;;91.70;30.40;;;-2.90;99.90;;;;;;4938938;29;20295;-81
2023/12/02 05:21:48;;;;;;;98.20;31.27;;;-2.80;99.90;;;;;;4955438;28;20194;-80
2023/12/02 05:24:19;;;;;;;94.50;31.47;;;-2.80;99.90;;;;;;4956139;29;20218;-81
2023/12/02 05:26:46;;;;;;;100.20;31.60;;;-2.70;99.90;;;;;;4956071;29;20229;-80
2023/12/02 05:29:13;;;;;;;98.87;31.27;;;-2.70;99.90;;;;;;4956133;29;20196;-81
2023/12/02 05:31:40;;;;;;;101.10;33.63;;;-2.60;99.90;;;;;;4938905;29;20267;-80
2023/12/02 05:34:07;;;;;;;102.83;32.17;;;-2.60;99.90;;;;;;4957075;29;20199;-80
2023/12/02 05:36:35;;;;;;;100.47;31.23;;;-2.70;99.90;;;;;;4956130;29;20285;-80
2023/12/02 05:39:02;;;;;;;103.27;31.70;;;-2.70;99.90;;;;;;4923146;29;20202;-81
2023/12/02 05:41:30;;;;;;;96.90;30.93;;;-2.70;99.90;;;;;;4956009;29;20219;-80
2023/12/02 05:43:57;;;;;;;101.77;31.73;;;-2.80;99.90;;;;;;4956282;29;20285;-80
2023/12/02 05:46:24;;;;;;;91.43;32.23;;;-2.80;99.90;;;;;;4938963;29;20190;-80
2023/12/02 05:48:51;;;;;;;108.03;33.13;;;-2.80;99.90;;;;;;4938908;29;20233;-80
2023/12/02 05:51:19;;;;;;;98.43;31.77;;;-2.80;99.90;;;;;;4939190;29;20252;-80
2023/12/02 05:53:46;;;;;;;84.10;29.37;;;-2.80;99.90;;;;;;4955973;29;20199;-80
2023/12/02 05:56:13;;;;;;;93.73;30.70;;;-2.90;99.90;;;;;;4937971;29;20265;-80
2023/12/02 05:58:41;;;;;;;88.13;29.37;;;-2.80;99.90;;;;;;4938623;29;20213;-80
2023/12/02 06:01:08;;;;;;;106.03;31.67;;;-2.80;99.90;;;;;;4922311;29;20679;-80
2023/12/02 06:03:35;;;;;;;103.97;32.10;;;-2.80;99.90;;;;;;4955508;29;20190;-80
2023/12/02 06:06:09;;;;;;;106.47;32.53;;;-2.80;99.90;;;;;;4955669;29;20207;-80
2023/12/02 06:08:36;;;;;;;106.47;31.90;;;-2.90;99.90;;;;;;4938723;29;20202;-80
2023/12/02 06:11:03;;;;;;;102.00;30.53;;;-3.00;99.90;;;;;;4938260;29;20705;-80
2023/12/02 06:13:30;;;;;;;107.00;29.77;;;-2.90;99.90;;;;;;4938389;29;20388;-80
2023/12/02 06:15:57;;;;;;;107.53;30.60;;;-2.90;99.90;;;;;;4955824;29;20201;-80
2023/12/02 06:18:25;;;;;;;105.13;31.83;;;-2.90;99.90;;;;;;4938553;29;20290;-80
2023/12/02 06:20:52;;;;;;;101.87;31.03;;;-2.80;99.90;;;;;;4955225;29;20244;-80
2023/12/02 06:23:20;;;;;;;100.93;31.03;;;-2.90;99.90;;;;;;4938390;29;20307;-80
2023/12/02 06:25:47;;;;;;;98.43;32.23;;;-2.90;99.90;;;;;;4955452;29;20225;-80
2023/12/02 06:28:14;;;;;;;108.60;31.07;;;-2.80;99.90;;;;;;4955409;29;20555;-80
2023/12/02 06:30:42;;;;;;;105.60;32.37;;;-2.80;99.90;;;;;;4955021;29;20615;-80
2023/12/02 06:33:09;;;;;;;104.70;30.83;;;-2.80;99.90;;;;;;4954217;28;20198;-79
2023/12/02 06:35:37;;;;;;;112.23;32.40;;;-2.80;99.90;;;;;;4954945;29;20202;-80
2023/12/02 06:38:04;;;;;;;107.20;32.43;;;-2.80;99.90;;;;;;4953887;29;20565;-80
2023/12/02 06:40:31;;;;;;;97.60;30.60;;;-2.80;99.90;;;;;;4938289;29;20567;-80
2023/12/02 06:42:58;;;;;;;97.77;30.17;;;-2.80;99.90;;;;;;4954876;29;20233;-80
2023/12/02 06:45:26;;;;;;;89.37;29.27;;;-2.80;99.90;;;;;;4954722;29;20190;-80
2023/12/02 06:47:53;;;;;;;92.17;29.43;;;-2.70;99.90;;;;;;4954930;29;20242;-79
2023/12/02 06:50:22;;;;;;;87.67;29.37;;;-2.70;99.90;;;;;;4954610;29;20393;-80
2023/12/02 06:52:50;;;;;;;94.17;30.23;;;-2.70;99.90;;;;;;4954665;29;20674;-80
2023/12/02 06:55:18;;;;;;;85.97;28.77;;;-2.70;99.90;;;;;;4954512;29;20232;-80
2023/12/02 06:57:47;;;;;;;84.10;27.80;;;-2.70;99.90;;;;;;4954821;29;20563;-80
2023/12/02 07:00:15;;;;;;;91.60;28.27;;;-2.70;99.90;;;;;;4954479;28;20213;-80
2023/12/02 07:02:43;;;;;;;84.33;27.47;;;-2.70;99.90;;;;;;4937668;29;20287;-80
2023/12/02 07:05:10;;;;;;;82.90;26.87;;;-2.80;99.90;;;;;;4954526;29;20217;-79
2023/12/02 07:07:37;;;;;;;88.77;26.90;;;-2.70;99.90;;;;;;4936845;29;20243;-80
2023/12/02 07:10:05;;;;;;;82.80;27.50;;;-2.70;99.90;;;;;;4954366;29;20245;-79
2023/12/02 07:12:32;;;;;;;86.47;26.93;;;-2.70;99.90;;;;;;4954267;29;20210;-80
2023/12/02 07:14:59;;;;;;;85.23;27.80;;;-2.70;99.90;;;;;;4954572;29;20266;-80
2023/12/02 07:17:27;;;;;;;82.33;27.07;;;-2.60;99.90;;;;;;4954488;29;20286;-80
2023/12/02 07:19:54;;;;;;;78.87;26.63;;;-2.50;99.90;;;;;;4954462;29;20281;-80
2023/12/02 07:22:21;;;;;;;90.93;27.00;;;-2.50;99.90;;;;;;4937489;29;20218;-80
2023/12/02 07:24:49;;;;;;;84.30;25.73;;;-2.50;99.90;;;;;;4954225;29;20226;-80
2023/12/02 07:27:16;;;;;;;94.83;27.10;;;-2.50;99.90;;;;;;4936963;29;20306;-80
2023/12/02 07:29:43;;;;;;;90.23;28.30;;;-2.50;99.90;;;;;;4954466;29;20198;-80
2023/12/02 07:32:13;;;;;;;81.93;26.53;;;-2.40;99.90;;;;;;4921704;29;20221;-80
2023/12/02 07:34:41;;;;;;;84.70;26.63;;;-2.40;99.90;;;;;;4954138;29;20205;-81
2023/12/02 07:37:08;;;;;;;86.47;27.70;;;-2.30;99.90;;;;;;4937382;29;20229;-81
2023/12/02 07:39:36;;;;;;;75.60;25.67;;;-2.30;99.90;;;;;;4954142;29;20634;-81
2023/12/02 07:42:03;;;;;;;80.60;25.57;;;-2.30;99.90;;;;;;4953909;29;20687;-80
2023/12/02 07:44:30;;;;;;;80.30;25.37;;;-2.20;99.90;;;;;;4955086;28;20198;-80
2023/12/02 07:46:58;;;;;;;78.40;24.83;;;-2.20;99.90;;;;;;4940983;29;20191;-80
2023/12/02 07:49:25;;;;;;;74.07;25.73;;;-2.30;99.90;;;;;;4957862;29;20202;-81
2023/12/02 07:51:54;;;;;;;65.00;23.13;;;-2.30;99.90;;;;;;4958024;29;20269;-81
2023/12/02 07:54:21;;;;;;;74.20;24.37;;;-2.40;99.90;;;;;;4940809;29;20197;-81
2023/12/02 07:56:48;;;;;;;75.93;24.20;;;-2.40;99.90;;;;;;4940218;29;20783;-81
2023/12/02 07:59:16;;;;;;;79.00;25.20;;;-2.30;99.90;;;;;;4940698;29;20268;-81
2023/12/02 08:01:43;;;;;;;72.00;24.10;;;-2.30;99.90;;;;;;4957693;29;20249;-81
2023/12/02 08:04:10;;;;;;;81.00;25.20;;;-2.30;99.90;;;;;;4956551;29;20294;-80
2023/12/02 08:06:37;;;;;;;73.67;24.57;;;-2.30;99.90;;;;;;4957908;29;20257;-80
2023/12/02 08:09:05;;;;;;;69.93;23.57;;;-2.30;99.90;;;;;;4940715;29;20731;-80
2023/12/02 08:11:32;;;;;;;78.93;24.30;;;-2.20;99.90;;;;;;4957340;29;20247;-80
2023/12/02 08:14:00;;;;;;;72.73;22.73;;;-2.20;99.90;;;;;;4957502;29;20288;-80
2023/12/02 08:16:28;;;;;;;77.73;24.80;;;-2.20;99.90;;;;;;4957644;29;20254;-81
2023/12/02 08:18:55;;;;;;;71.83;22.90;;;-2.10;99.90;;;;;;4957376;29;20195;-81
2023/12/02 08:21:22;;;;;;;69.53;23.97;;;-2.10;99.90;;;;;;4957590;29;20223;-80
2023/12/02 08:23:50;;;;;;;71.63;23.43;;;-2.10;99.90;;;;;;4957785;29;20218;-81
2023/12/02 08:26:17;;;;;;;79.83;24.60;;;-2.10;99.90;;;;;;4957067;29;20679;-81
2023/12/02 08:28:46;;;;;;;70.63;24.13;;;-2.10;99.90;;;;;;4957360;29;20199;-81
2023/12/02 08:31:14;;;;;;;72.67;22.97;;;-2.00;99.90;;;;;;4955992;29;20227;-81
2023/12/02 08:33:41;;;;;;;67.10;21.57;;;-2.10;99.90;;;;;;4957075;29;20194;-80
2023/12/02 08:36:09;;;;;;;62.57;21.17;;;-2.20;99.90;;;;;;4958717;29;20208;-77
2023/12/02 08:38:36;;;;;;;69.03;21.37;;;-2.10;99.90;;;;;;4963794;29;20294;-79
2023/12/02 08:41:04;;;;;;;61.47;21.13;;;-2.10;99.90;;;;;;4963186;29;20309;-79
2023/12/02 08:43:31;;;;;;;64.80;21.60;;;-2.00;99.90;;;;;;4961688;29;20428;-78
2023/12/02 08:45:58;;;;;;;68.70;21.77;;;-1.90;99.90;;;;;;4960302;29;20285;-81
2023/12/02 08:48:26;;;;;;;70.73;22.27;;;-1.80;99.90;;;;;;4958681;29;20191;-80
2023/12/02 08:50:53;;;;;;;64.73;21.93;;;-1.80;99.90;;;;;;4957677;29;20230;-81
2023/12/02 08:53:20;;;;;;;63.30;21.50;;;-1.70;99.90;;;;;;4957109;29;20198;-81
2023/12/02 08:55:47;;;;;;;60.77;21.07;;;-1.60;99.90;;;;;;4955714;28;20247;-81
2023/12/02 08:58:14;;;;;;;61.17;19.87;;;-1.60;99.90;;;;;;4956733;29;20209;-81
2023/12/02 09:00:41;;;;;;;64.90;21.13;;;-1.70;99.90;;;;;;4956463;29;20198;-80
2023/12/02 09:03:08;;;;;;;64.97;20.40;;;-1.70;99.90;;;;;;4956807;29;20195;-80
2023/12/02 09:05:35;;;;;;;72.50;20.83;;;-1.70;99.90;;;;;;4939058;29;20204;-79
2023/12/02 09:08:03;;;;;;;64.03;20.57;;;-1.80;99.90;;;;;;4956654;29;20241;-80
2023/12/02 09:10:31;;;;;;;63.13;20.33;;;-1.70;99.90;;;;;;4955348;29;20261;-81
2023/12/02 09:12:59;;;;;;;64.33;20.30;;;-1.60;99.90;;;;;;4956396;29;20710;-80
2023/12/02 09:15:40;;;;;;;65.67;21.00;;;-1.60;99.90;;;;;;4956202;29;20200;-81
2023/12/02 09:18:11;;;;;;;72.70;21.90;;;-1.50;99.90;;;;;;4956345;29;20281;-79
2023/12/02 09:20:43;;;;;;;70.27;22.70;;;-1.40;99.90;;;;;;4956459;29;20190;-80
2023/12/02 09:23:12;;;;;;;62.57;21.20;;;-1.40;99.90;;;;;;4956338;29;20199;-80
2023/12/02 09:25:40;;;;;;;63.23;21.93;;;-1.40;99.90;;;;;;4923331;29;20218;-80
2023/12/02 09:28:11;;;;;;;67.07;21.50;;;-1.40;99.90;;;;;;4939220;29;20199;-80
2023/12/02 09:30:50;;;;;;;60.27;20.63;;;-1.40;99.90;;;;;;4938784;29;20231;-80
2023/12/02 09:33:35;;;;;;;67.07;21.60;;;-1.40;99.90;;;;;;4941359;29;20203;-80
2023/12/02 09:36:03;;;;;;;75.37;23.17;;;-1.50;99.90;;;;;;4955866;29;20605;-79
2023/12/02 09:38:32;;;;;;;65.17;20.83;;;-1.40;99.90;;;;;;4922920;29;20740;-80
2023/12/02 09:41:24;;;;;;;70.50;22.27;;;-1.50;99.90;;;;;;4955491;29;20226;-80
2023/12/02 09:44:27;;;;;;;75.77;23.03;;;-1.40;99.90;;;;;;4956057;29;20195;-79
2023/12/02 09:46:57;;;;;;;68.27;21.57;;;-1.50;99.90;;;;;;4877690;29;20224;-80
2023/12/02 09:50:02;;;;;;;64.63;21.33;;;-1.60;99.90;;;;;;4877657;29;20209;-80
2023/12/02 09:52:50;;;;;;;68.80;21.90;;;-1.60;99.90;;;;;;4877683;29;20226;-80
2023/12/02 09:55:26;;;;;;;67.57;21.43;;;-1.50;99.90;;;;;;4877515;29;20247;-80
2023/12/02 09:58:13;;;;;;;67.03;21.93;;;-1.40;99.90;;;;;;4877343;29;20694;-81
2023/12/02 10:00:52;;;;;;;66.77;20.77;;;-1.40;99.90;;;;;;4877533;29;20232;-80
2023/12/02 10:03:37;;;;;;;65.10;21.70;;;-1.40;99.90;;;;;;4861933;29;20234;-80
2023/12/02 10:06:25;;;;;;;70.50;21.53;;;-1.30;99.90;;;;;;4861911;29;20300;-80
2023/12/02 10:08:52;;;;;;;67.10;21.30;;;-1.20;99.90;;;;;;4877270;29;20211;-81
2023/12/02 10:11:41;;;;;;;64.80;22.10;;;-1.10;99.90;;;;;;4877206;29;20328;-80
2023/12/02 10:14:11;;;;;;;70.83;22.80;;;-1.00;99.90;;;;;;4846496;29;20291;-80
2023/12/02 10:16:42;;;;;;;73.20;22.70;;;-1.00;99.90;;;;;;4862001;29;20309;-81
2023/12/02 10:19:43;;;;;;;66.57;22.30;;;-1.00;99.90;;;;;;4861587;29;20217;-80
2023/12/02 10:22:14;;;;;;;76.50;21.93;;;-1.00;99.90;;;;;;4880307;29;20201;-79
2023/12/02 10:24:57;;;;;;;63.80;21.50;;;-1.00;99.90;;;;;;4955097;29;20195;-80
2023/12/02 10:27:27;;;;;;;66.57;21.83;;;-1.00;99.90;;;;;;4955380;29;20223;-80
2023/12/02 10:30:09;;;;;;;63.00;22.17;;;-1.30;99.90;;;;;;4955215;29;20238;-80
2023/12/02 10:32:57;;;;;;;61.70;19.90;;;-1.20;99.90;;;;;;4955117;29;20720;-80
2023/12/02 10:35:31;;;;;;;60.97;19.77;;;-1.10;99.90;;;;;;4954056;29;20197;-81
2023/12/02 10:38:07;;;;;;;63.33;21.77;;;-1.00;99.90;;;;;;4938180;29;20224;-81
2023/12/02 10:40:35;;;;;;;58.23;20.80;;;-1.00;99.90;;;;;;4955322;29;20262;-80
2023/12/02 10:43:22;;;;;;;62.47;21.27;;;-1.10;99.90;;;;;;4955036;28;20201;-81
2023/12/02 10:45:50;;;;;;;67.73;21.47;;;-1.00;99.90;;;;;;4955214;29;20558;-80
2023/12/02 10:48:18;;;;;;;66.33;20.63;;;-0.90;99.90;;;;;;4954801;29;20662;-81
2023/12/02 10:50:49;;;;;;;71.63;22.40;;;-1.00;99.90;;;;;;4954807;29;20198;-80
2023/12/02 10:53:22;;;;;;;72.50;21.80;;;-1.20;99.90;;;;;;4937470;29;20298;-80
2023/12/02 10:55:55;;;;;;;71.27;22.43;;;-1.10;99.90;;;;;;4954896;29;20314;-82
2023/12/02 10:58:25;;;;;;;68.23;22.03;;;-1.10;99.90;;;;;;4937459;29;20286;-80
2023/12/02 11:01:07;;;;;;;59.63;20.83;;;-1.00;99.90;;;;;;4955599;29;20203;-81
2023/12/02 11:03:38;;;;;;;63.20;21.03;;;-0.80;99.90;;;;;;4954927;29;20198;-81
2023/12/02 11:06:17;;;;;;;59.73;20.47;;;-0.60;99.90;;;;;;4937579;29;20205;-81
2023/12/02 11:08:53;;;;;;;58.87;20.63;;;-0.70;99.90;;;;;;4953421;29;20216;-81
2023/12/02 11:11:37;;;;;;;64.33;21.60;;;-0.70;99.90;;;;;;4954363;29;20253;-81
2023/12/02 11:14:11;;;;;;;58.43;20.53;;;-0.60;99.90;;;;;;4937182;29;20257;-80
2023/12/02 11:16:45;;;;;;;59.33;20.00;;;-0.60;99.90;;;;;;4954683;29;20211;-81
2023/12/02 11:19:36;;;;;;;54.37;19.23;;;-0.50;99.90;;;;;;4936867;29;20197;-80
2023/12/02 11:22:40;;;;;;;57.77;19.47;;;-0.50;99.90;;;;;;4937441;29;20562;-81
2023/12/02 11:25:24;;;;;;;52.10;18.60;;;-0.40;99.90;;;;;;4953084;29;20202;-80
2023/12/02 11:28:05;;;;;;;57.03;19.73;;;-0.40;99.90;;;;;;4954153;29;20526;-80
2023/12/02 11:30:52;;;;;;;55.57;19.60;;;-0.40;99.90;;;;;;4954638;29;20208;-80
2023/12/02 11:33:47;;;;;;;59.63;20.30;;;-0.50;99.90;;;;;;4937030;29;20306;-80
2023/12/02 11:36:33;;;;;;;63.80;20.87;;;-0.70;99.90;;;;;;4937197;29;20198;-81
2023/12/02 11:39:00;;;;;;;54.80;20.07;;;-0.60;99.90;;;;;;4921498;29;20257;-81
2023/12/02 11:41:46;;;;;;;59.07;20.93;;;-0.80;99.90;;;;;;4937245;29;20213;-82
2023/12/02 11:44:44;;;;;;;64.27;21.93;;;-0.90;99.90;;;;;;4937393;29;20565;-81
2023/12/02 11:47:17;;;;;;;59.50;20.40;;;-0.90;99.90;;;;;;4952951;29;20237;-80
2023/12/02 11:50:09;;;;;;;59.53;20.60;;;-0.80;99.90;;;;;;4954208;29;20224;-80
2023/12/02 11:52:44;;;;;;;63.83;22.03;;;-0.90;99.90;;;;;;4952745;29;20417;-80
2023/12/02 11:55:32;;;;;;;70.77;22.73;;;-0.80;99.90;;;;;;4952659;29;20250;-80
2023/12/02 11:58:18;;;;;;;60.73;20.23;;;-1.00;99.90;;;;;;4954534;29;20196;-80
2023/12/02 12:01:12;;;;;;;63.30;21.47;;;-1.00;99.90;;;;;;4937169;29;20191;-80
2023/12/02 12:03:49;;;;;;;68.67;21.83;;;-1.20;99.90;;;;;;4954111;29;20201;-81
2023/12/02 12:06:41;;;;;;;65.77;21.90;;;-1.20;99.90;;;;;;4954082;29;20194;-80
2023/12/02 12:09:17;;;;;;;70.57;22.07;;;-1.30;99.90;;;;;;4937104;29;20194;-81
2023/12/02 12:11:45;;;;;;;61.47;20.17;;;-1.30;99.90;;;;;;4953688;29;20735;-81
2023/12/02 12:14:14;;;;;;;54.07;19.03;;;-1.40;99.90;;;;;;4936744;29;20660;-81
2023/12/02 12:16:41;;;;;;;56.40;18.97;;;-1.30;99.90;;;;;;4954008;29;20216;-81
2023/12/02 12:19:09;;;;;;;56.67;19.57;;;-1.40;99.90;;;;;;4954226;29;20202;-80
2023/12/02 12:21:39;;;;;;;55.53;19.73;;;-1.40;99.90;;;;;;4954626;29;20247;-80
2023/12/02 12:24:06;;;;;;;56.80;19.43;;;-1.40;99.90;;;;;;4937109;29;20190;-81
2023/12/02 12:26:33;;;;;;;62.37;21.00;;;-1.50;99.90;;;;;;4921180;29;20272;-81
2023/12/02 12:29:02;;;;;;;59.27;19.10;;;-1.40;99.90;;;;;;4952724;29;20198;-81
2023/12/02 12:31:30;;;;;;;53.43;18.83;;;-1.30;99.90;;;;;;4956080;28;20638;-81
2023/12/02 12:34:03;;;;;;;58.33;19.97;;;-1.30;99.90;;;;;;4956199;29;20330;-82
2023/12/02 12:36:31;;;;;;;60.23;19.27;;;-1.30;99.90;;;;;;4940228;29;20235;-81
2023/12/02 12:38:59;;;;;;;55.77;19.17;;;-1.10;99.90;;;;;;4940358;29;20223;-81